Time;durP1;ratioP1;P1;durP2;ratioP2;P2;SDS_P1;SDS_P2;PMS_P1;PMS_P2;Temp;Humidity;BMP_temperature;BMP_pressure;BME280_temperature;BME280_humidity;BME280_pressure;Samples;Min_cycle;Max_cycle;Signal;HPM_P1;HPM_P2
2021/12/03 00:01:12;;;;;;;55.60;50.03;;;;;;;-0.16;78.74;100482.44;4958979;29;20019;-84
2021/12/03 00:03:42;;;;;;;57.60;51.42;;;;;;;-0.20;79.14;100486.63;4965058;29;20019;-84
2021/12/03 00:06:08;;;;;;;56.63;50.72;;;;;;;-0.21;78.51;100489.16;4985552;28;20569;-85
2021/12/03 00:08:33;;;;;;;57.50;51.13;;;;;;;-0.22;79.16;100498.41;4967826;29;20050;-86
2021/12/03 00:11:01;;;;;;;58.33;50.57;;;;;;;-0.11;78.75;100492.63;4983497;28;20062;-85
2021/12/03 00:14:05;;;;;;;123.90;62.35;;;;;;;-0.24;79.38;100484.91;4984630;23;20039;-87
2021/12/03 00:17:18;;;;;;;56.00;50.30;;;;;;;-0.51;79.22;100424.75;4946260;28;20043;-87
2021/12/03 00:19:59;;;;;;;56.45;50.72;;;;;;;-0.35;80.20;100437.59;4969662;28;20039;-89
2021/12/03 00:22:34;;;;;;;58.35;50.45;;;;;;;-0.40;79.54;100432.47;4964607;28;20067;-89
2021/12/03 00:25:22;;;;;;;55.65;50.10;;;;;;;-0.32;79.38;100455.31;4964800;29;20078;-88
2021/12/03 00:27:57;;;;;;;57.30;51.22;;;;;;;-0.11;79.97;100495.16;4980620;28;20010;-90
2021/12/03 00:30:31;;;;;;;57.40;50.85;;;;;;;-0.30;80.35;100494.09;4969224;28;20042;-89
2021/12/03 00:33:25;;;;;;;56.75;50.78;;;;;;;-0.43;81.03;100493.09;4972994;28;20063;-86
2021/12/03 00:42:52;;;;;;;57.17;50.97;;;;;;;-0.46;81.72;100465.25;4961669;28;20060;-87
2021/12/03 00:45:33;;;;;;;59.22;51.63;;;;;;;-0.58;81.52;100471.00;4930566;28;20031;-86
2021/12/03 00:48:09;;;;;;;57.20;51.10;;;;;;;-0.62;81.12;100444.00;4968228;28;20027;-87
2021/12/03 00:50:50;;;;;;;56.63;50.47;;;;;;;-0.39;81.89;100513.38;4965346;28;20042;-87
2021/12/03 00:56:33;;;;;;;55.80;50.13;;;;;;;-0.50;81.46;100488.81;4976618;28;20035;-86
2021/12/03 00:59:05;;;;;;;56.92;50.67;;;;;;;-0.39;81.57;100502.41;4940333;28;20039;-86
2021/12/03 01:01:38;;;;;;;55.38;49.63;;;;;;;-0.43;80.84;100493.09;4959370;29;20431;-88
2021/12/03 01:08:37;;;;;;;;;;;;;;;;;;;;;
2021/12/03 01:11:36;;;;;;;54.38;48.80;;;;;;;-0.37;82.25;100483.94;4964760;29;20114;-88
2021/12/03 01:56:29;;;;;;;56.13;50.22;;;;;;;-0.70;81.32;100507.09;4959200;28;20050;-88
2021/12/03 02:05:59;;;;;;;61.35;52.30;;;;;;;-0.80;81.48;100485.03;4825571;29;20059;-88
2021/12/03 02:19:43;;;;;;;86.72;56.00;;;;;;;-0.58;82.33;100527.44;4799864;29;20081;-87
2021/12/03 02:22:38;;;;;;;65.95;53.40;;;;;;;-0.78;82.70;100481.72;4830710;29;20042;-88
2021/12/03 02:28:56;;;;;;;81.40;55.30;;;;;;;-0.57;82.26;100535.88;4826801;29;20063;-87
2021/12/03 02:31:49;;;;;;;58.45;51.67;;;;;;;-0.54;83.09;100533.41;4852938;29;20056;-88
2021/12/03 02:49:51;;;;;;;55.70;49.97;;;;;;;-0.35;81.77;100569.00;4977558;28;20039;-88
2021/12/03 02:52:16;;;;;;;59.15;51.80;;;;;;;-0.54;82.16;100535.94;4962887;28;20054;-87
2021/12/03 02:54:44;;;;;;;56.97;50.90;;;;;;;-0.44;81.24;100547.00;4944045;28;20087;-87
2021/12/03 02:57:31;;;;;;;58.10;51.42;;;;;;;-0.11;81.83;100588.69;4944148;28;20023;-87
2021/12/03 03:00:05;;;;;;;56.95;50.88;;;;;;;-0.40;81.64;100528.50;4927605;28;20031;-88
2021/12/03 03:02:31;;;;;;;60.13;51.08;;;;;;;-0.32;82.02;100526.09;4939678;28;20019;-88
2021/12/03 03:05:01;;;;;;;56.28;50.05;;;;;;;-0.25;83.09;100573.38;4945974;28;20023;-88
2021/12/03 03:07:33;;;;;;;55.92;50.15;;;;;;;-0.57;84.22;100505.56;4946967;28;20011;-87
2021/12/03 04:52:50;;;;;;;60.08;52.17;;;;;;;-0.02;79.69;100555.94;4942301;29;20435;-87
2021/12/03 04:55:16;;;;;;;56.05;50.53;;;;;;;0.13;80.08;100571.31;4950527;29;20031;-86
2021/12/03 04:57:54;;;;;;;;;;;;;;;0.15;79.58;100558.69;4950175;28;20034;-87
2021/12/03 05:00:55;;;;;;;57.08;51.05;;;;;;;0.17;79.03;100542.66;4935155;29;19910;-87
2021/12/03 05:03:25;;;;;;;58.80;52.47;;;;;;;-0.05;79.96;100540.72;4939725;29;20035;-87
2021/12/03 05:05:55;;;;;;;57.80;51.72;;;;;;;-0.26;80.44;100544.69;4929319;29;20039;-89
2021/12/03 05:08:21;;;;;;;58.45;51.78;;;;;;;-0.35;80.55;100543.72;4928914;29;20143;-88
2021/12/03 05:10:50;;;;;;;57.95;51.53;;;;;;;-0.20;80.05;100542.25;4931979;29;20034;-87
2021/12/03 05:13:22;;;;;;;57.30;51.10;;;;;;;-0.22;80.69;100541.38;4935047;29;20027;-87
2021/12/03 05:16:41;;;;;;;57.85;51.92;;;;;;;-0.24;80.83;100543.06;4948163;29;20035;-88
2021/12/03 05:26:35;;;;;;;;;;;;;;;;;;;;;
2021/12/03 06:10:53;;;;;;;57.97;51.85;;;;;;;0.02;80.38;100546.72;4988890;28;20047;-87
2021/12/03 06:13:29;;;;;;;;;;;;;;;;;;;;;
2021/12/03 06:15:55;;;;;;;59.08;52.78;;;;;;;-0.04;80.54;100543.28;4993673;23;20130;-83
2021/12/03 06:18:20;;;;;;;59.00;52.67;;;;;;;0.05;80.72;100545.09;4979179;28;20062;-84
2021/12/03 06:20:46;;;;;;;59.23;52.93;;;;;;;0.08;80.74;100550.19;4985272;28;20047;-84
2021/12/03 06:23:25;;;;;;;60.80;53.60;;;;;;;0.11;80.19;100552.75;4965492;28;20478;-85
2021/12/03 06:25:51;;;;;;;62.22;56.42;;;;;;;0.16;79.67;100535.94;4965829;28;20034;-85
2021/12/03 06:28:16;;;;;;;58.03;51.73;;;;;;;-0.03;79.83;100513.81;4978373;28;20039;-85
2021/12/03 06:30:42;;;;;;;59.40;52.93;;;;;;;0.10;79.91;100537.56;4986091;28;20261;-85
2021/12/03 06:33:07;;;;;;;63.30;52.93;;;;;;;0.08;80.50;100536.66;4984473;28;20043;-86
2021/12/03 06:35:33;;;;;;;58.23;52.23;;;;;;;-0.07;80.30;100532.28;4978749;28;20083;-85
2021/12/03 06:37:58;;;;;;;58.53;52.27;;;;;;;-0.03;80.30;100519.72;4982369;28;20019;-86
2021/12/03 06:40:25;;;;;;;64.03;54.70;;;;;;;0.02;80.47;100526.47;4965352;28;20065;-84
2021/12/03 06:42:50;;;;;;;70.78;55.17;;;;;;;0.06;80.95;100518.94;4969452;28;20046;-83
2021/12/03 06:45:16;;;;;;;68.87;54.50;;;;;;;0.01;80.60;100540.81;4977668;28;20034;-83
2021/12/03 06:47:42;;;;;;;67.53;56.00;;;;;;;0.07;81.04;100535.81;4981300;28;20035;-83
2021/12/03 06:50:09;;;;;;;80.97;57.08;;;;;;;-0.07;81.10;100532.28;4967277;28;20031;-83
2021/12/03 06:52:37;;;;;;;89.88;58.15;;;;;;;-0.14;81.23;100511.16;4962658;28;20037;-87
2021/12/03 06:55:04;;;;;;;81.72;57.15;;;;;;;-0.03;80.47;100539.09;4972310;28;20130;-87
2021/12/03 06:57:29;;;;;;;73.50;55.97;;;;;;;-0.05;80.60;100531.50;4957549;29;20055;-90
2021/12/03 06:59:55;;;;;;;68.43;54.40;;;;;;;-0.05;80.08;100521.38;4954928;28;20027;-89
2021/12/03 07:02:20;;;;;;;65.17;53.67;;;;;;;-0.04;80.72;100532.31;4958021;28;20109;-87
2021/12/03 07:04:46;;;;;;;98.40;60.57;;;;;;;-0.10;80.00;100517.09;4955754;28;20372;-89
2021/12/03 07:07:11;;;;;;;61.23;54.03;;;;;;;0.05;79.94;100541.69;4947672;29;20031;-79
2021/12/03 07:09:36;;;;;;;61.10;54.43;;;;;;;-0.03;80.56;100519.72;4952021;28;20027;-81
2021/12/03 07:12:02;;;;;;;64.73;54.97;;;;;;;0.10;79.61;100535.84;4950400;28;20128;-89
2021/12/03 07:14:28;;;;;;;63.67;54.40;;;;;;;0.21;79.33;100546.09;4979583;28;20027;-89
2021/12/03 07:16:53;;;;;;;65.00;54.07;;;;;;;0.25;79.82;100545.28;4971313;28;20038;-89
2021/12/03 07:19:18;;;;;;;59.50;53.43;;;;;;;0.20;79.50;100539.34;4986889;28;20027;-88
2021/12/03 07:21:44;;;;;;;60.70;53.03;;;;;;;0.18;79.06;100546.06;4987269;28;20046;-88
2021/12/03 07:24:09;;;;;;;68.83;56.43;;;;;;;0.05;79.68;100536.63;4989476;28;20027;-88
2021/12/03 07:26:34;;;;;;;61.23;53.97;;;;;;;-0.14;79.63;100515.34;4969326;28;20089;-88
2021/12/03 07:29:00;;;;;;;87.57;59.97;;;;;;;0.09;79.84;100546.78;4980364;28;20042;-89
2021/12/03 07:31:26;;;;;;;66.73;56.37;;;;;;;0.20;79.61;100543.56;4985041;28;20010;-87
2021/12/03 07:33:54;;;;;;;69.70;57.53;;;;;;;0.09;80.13;100544.28;4994227;28;20042;-87
2021/12/03 07:36:20;;;;;;;69.05;56.22;;;;;;;0.07;79.68;100534.97;4971427;28;20459;-88
2021/12/03 07:38:45;;;;;;;59.40;53.28;;;;;;;0.01;79.70;100532.38;4970077;28;20023;-88
2021/12/03 07:41:10;;;;;;;61.50;54.77;;;;;;;-0.32;80.18;100475.53;4970651;28;20026;-89
2021/12/03 07:43:36;;;;;;;60.03;53.27;;;;;;;0.06;79.35;100534.13;4968710;28;20090;-89
2021/12/03 07:46:02;;;;;;;62.28;54.47;;;;;;;-0.21;80.06;100479.91;4963197;28;20045;-88
2021/12/03 07:48:28;;;;;;;58.15;52.20;;;;;;;0.09;79.28;100549.31;4969698;28;20058;-88
2021/12/03 07:50:57;;;;;;;73.07;56.37;;;;;;;-0.01;79.81;100514.66;4960439;28;20027;-89
2021/12/03 07:53:26;;;;;;;63.80;54.28;;;;;;;-0.04;79.44;100517.16;4963445;28;20110;-88
2021/12/03 07:55:52;;;;;;;69.38;55.20;;;;;;;0.17;78.94;100540.13;4961254;28;20027;-88
2021/12/03 07:58:18;;;;;;;68.18;54.72;;;;;;;0.20;79.59;100535.97;4971462;28;20058;-88
2021/12/03 08:00:47;;;;;;;60.95;53.80;;;;;;;-0.07;79.11;100502.78;4972284;28;20066;-88
2021/12/03 08:03:17;;;;;;;59.95;53.17;;;;;;;0.09;78.96;100508.84;4985286;28;20023;-88
2021/12/03 08:05:49;;;;;;;58.80;52.95;;;;;;;0.35;79.06;100546.22;4958848;29;20275;-88
2021/12/03 08:08:21;;;;;;;63.22;53.05;;;;;;;0.59;77.32;100529.59;4969113;28;20027;-87
2021/12/03 08:10:47;;;;;;;59.20;52.58;;;;;;;0.51;77.77;100537.97;4961064;28;20119;-88
2021/12/03 08:13:12;;;;;;;58.40;52.40;;;;;;;0.54;77.45;100527.88;4968299;28;20055;-87
2021/12/03 08:15:38;;;;;;;60.07;52.60;;;;;;;0.46;77.69;100541.28;4996404;28;20035;-87
2021/12/03 08:18:13;;;;;;;64.77;53.37;;;;;;;0.28;77.77;100506.53;4976411;28;20027;-89
2021/12/03 08:20:39;;;;;;;59.50;53.25;;;;;;;0.56;77.57;100545.59;4988095;28;20023;-87
2021/12/03 08:23:04;;;;;;;62.57;52.83;;;;;;;0.82;76.84;100539.91;4971719;28;20034;-88
2021/12/03 08:25:30;;;;;;;62.47;53.53;;;;;;;0.71;76.18;100545.72;4972267;28;20030;-88
2021/12/03 08:27:57;;;;;;;;;;;;;;;0.67;76.44;100558.38;4962982;28;20027;-87
2021/12/03 08:30:25;;;;;;;59.33;52.75;;;;;;;0.51;76.44;100534.59;4988324;28;19965;-87
2021/12/03 08:32:50;;;;;;;58.38;52.47;;;;;;;0.66;76.41;100531.34;4975980;28;20056;-89
2021/12/03 08:35:16;;;;;;;77.27;56.23;;;;;;;0.48;76.24;100539.63;4983968;28;20011;-89
2021/12/03 08:37:45;;;;;;;63.97;53.57;;;;;;;0.79;76.37;100558.47;4983797;28;20007;-88
2021/12/03 08:40:11;;;;;;;59.65;53.30;;;;;;;0.71;76.18;100555.00;4984394;28;20047;-91
2021/12/03 08:42:37;;;;;;;61.03;53.88;;;;;;;0.50;76.63;100526.13;4977808;28;20229;-88
2021/12/03 08:45:04;;;;;;;59.55;53.45;;;;;;;0.74;76.36;100560.09;4977124;28;20030;-88
2021/12/03 08:47:30;;;;;;;60.92;54.03;;;;;;;0.71;76.35;100560.06;4978022;28;20033;-89
2021/12/03 08:49:56;;;;;;;59.05;53.08;;;;;;;0.58;76.67;100555.75;4979460;28;20023;-88
2021/12/03 08:52:45;;;;;;;61.10;54.83;;;;;;;0.51;76.14;100539.66;5013185;23;20057;-88
2021/12/03 08:55:10;;;;;;;88.65;59.50;;;;;;;0.60;76.29;100556.59;5145609;23;20077;-88
2021/12/03 08:57:36;;;;;;;61.73;55.33;;;;;;;0.43;76.70;100544.66;4964004;28;20070;-87
2021/12/03 09:00:14;;;;;;;76.27;58.23;;;;;;;0.58;76.53;100558.28;4960398;28;20041;-88
2021/12/03 09:02:41;;;;;;;64.85;55.10;;;;;;;0.61;76.37;100564.22;4994743;23;20059;-88
2021/12/03 09:05:07;;;;;;;61.97;55.10;;;;;;;0.51;76.49;100545.56;4981997;28;20075;-88
2021/12/03 09:07:33;;;;;;;62.22;55.25;;;;;;;0.43;76.45;100519.34;4983532;28;20107;-89
2021/12/03 09:09:58;;;;;;;62.03;55.08;;;;;;;0.23;76.89;100501.41;4972126;28;20034;-89
2021/12/03 09:12:24;;;;;;;65.47;57.23;;;;;;;0.45;76.09;100535.38;4977911;28;20137;-89
2021/12/03 09:14:58;;;;;;;68.53;56.57;;;;;;;0.66;76.55;100566.78;4982452;28;20051;-90
2021/12/03 09:20:24;;;;;;;66.68;56.88;;;;;;;0.64;76.88;100565.94;4985496;28;20062;-88
2021/12/03 09:22:52;;;;;;;76.03;60.17;;;;;;;0.36;76.57;100530.22;4964938;28;20091;-88
2021/12/03 09:25:23;;;;;;;65.13;56.88;;;;;;;0.73;75.92;100550.81;4978401;28;20061;-89
2021/12/03 09:27:50;;;;;;;70.90;58.88;;;;;;;0.32;76.59;100519.22;4984633;28;20027;-90
2021/12/03 09:30:17;;;;;;;66.75;57.70;;;;;;;0.56;76.45;100530.41;4978651;28;20007;-88
2021/12/03 09:32:48;;;;;;;66.00;58.03;;;;;;;0.73;76.54;100558.41;4996001;28;20019;-90
2021/12/03 09:35:15;;;;;;;73.28;59.17;;;;;;;0.73;76.94;100558.41;4963862;28;20604;-88
2021/12/03 09:37:41;;;;;;;67.43;56.78;;;;;;;0.46;76.59;100515.97;5045397;23;20057;-88
2021/12/03 09:40:09;;;;;;;68.57;59.53;;;;;;;0.43;76.79;100513.41;5010928;28;20016;-89
2021/12/03 09:42:38;;;;;;;70.57;58.88;;;;;;;0.42;76.50;100512.56;4977147;28;20022;-89
2021/12/03 09:45:07;;;;;;;64.05;57.05;;;;;;;0.66;77.42;100554.97;4990266;28;20019;-88
2021/12/03 09:47:33;;;;;;;70.30;57.72;;;;;;;0.42;77.42;100535.34;4976463;28;20066;-89
2021/12/03 09:50:00;;;;;;;66.72;56.80;;;;;;;0.59;77.25;100545.63;4993010;28;20023;-88
2021/12/03 09:55:02;;;;;;;69.95;57.78;;;;;;;0.33;77.56;100489.69;5007238;28;20034;-88
2021/12/03 09:57:36;;;;;;;68.60;58.85;;;;;;;0.53;77.29;100516.03;5014757;28;20090;-89
2021/12/03 10:03:09;;;;;;;75.93;59.65;;;;;;;0.75;77.11;100545.75;5004330;28;20022;-88
2021/12/03 10:07:04;;;;;;;80.13;59.90;;;;;;;0.70;76.99;100553.31;5013828;28;20015;-88
2021/12/03 10:17:35;;;;;;;65.93;57.00;;;;;;;0.94;76.64;100531.56;4985377;28;20056;-89
2021/12/03 10:41:24;;;;;;;70.95;58.10;;;;;;;0.90;77.80;100508.75;5007656;28;20048;-87
2021/12/03 10:44:05;;;;;;;76.60;59.20;;;;;;;0.81;78.44;100490.97;5008593;28;20057;-87
2021/12/03 10:52:04;;;;;;;81.88;61.58;;;;;;;0.94;78.20;100498.63;4999726;28;20023;-89
2021/12/03 10:57:38;;;;;;;;;;;;;;;1.09;78.23;100486.09;4988629;28;20034;-88
2021/12/03 11:38:05;;;;;;;82.72;61.28;;;;;;;1.21;78.69;100447.28;5026965;28;20030;-89
2021/12/03 12:01:12;;;;;;;88.28;60.65;;;;;;;1.26;78.42;100428.75;5012848;28;20031;-88
2021/12/03 12:36:08;;;;;;;87.20;62.25;;;;;;;1.51;78.26;100403.50;4918591;29;20112;-90
2021/12/03 14:45:53;;;;;;;;;;;;;;;;;;;;;
2021/12/03 14:57:32;;;;;;;83.18;58.38;;;;;;;1.36;79.55;100170.31;4978371;28;20023;-88
2021/12/03 15:14:54;;;;;;;106.20;65.32;;;;;;;1.04;81.49;100118.78;4984612;28;20053;-88
2021/12/03 15:41:18;;;;;;;70.22;58.60;;;;;;;1.15;83.48;100144.13;5008060;28;20062;-89
2021/12/03 15:52:52;;;;;;;64.70;56.78;;;;;;;1.08;83.84;100125.53;4971732;28;20098;-90
2021/12/03 15:55:51;;;;;;;75.10;58.15;;;;;;;0.92;83.75;100101.03;4990937;28;20031;-89
2021/12/03 16:03:48;;;;;;;72.82;57.42;;;;;;;1.13;83.90;100112.88;5018714;28;20083;-87
2021/12/03 16:23:24;;;;;;;62.85;55.97;;;;;;;0.86;85.03;100043.66;5007022;28;20052;-89
2021/12/03 16:48:11;;;;;;;63.87;55.90;;;;;;;1.14;85.10;100063.88;4980679;28;20058;-89
2021/12/03 16:53:07;;;;;;;62.75;55.95;;;;;;;1.05;100.00;100047.00;4985431;28;20027;-89
2021/12/03 16:55:32;;;;;;;;;;;;;;;1.08;100.00;100051.22;4987824;28;20026;-88
2021/12/03 16:57:57;;;;;;;63.13;56.30;;;;;;;1.08;100.00;100064.75;4975825;28;19914;-88
2021/12/03 17:00:40;;;;;;;68.07;56.53;;;;;;;1.13;100.00;100059.69;4976624;28;20011;-90
2021/12/03 17:03:16;;;;;;;76.63;58.05;;;;;;;0.81;100.00;100012.44;4995365;28;20031;-89
2021/12/03 17:17:04;;;;;;;60.70;54.33;;;;;;;0.90;100.00;99998.91;4987581;28;20494;-90
2021/12/03 17:56:53;;;;;;;66.15;56.55;;;;;;;1.27;100.00;100003.91;4997105;28;20062;-90
2021/12/03 17:59:42;;;;;;;68.18;57.17;;;;;;;1.32;100.00;99997.16;4976110;28;20051;-90
2021/12/03 18:02:17;;;;;;;60.58;54.20;;;;;;;1.36;100.00;100008.13;4977532;28;20023;-90
2021/12/03 18:57:27;;;;;;;63.13;55.63;;;;;;;-145.93;100.00;59239.47;4984323;28;20054;-88
2021/12/03 19:00:44;;;;;;;66.03;56.97;;;;;;;1.25;0.00;76021.63;4953791;28;20050;-89
2021/12/03 19:04:33;;;;;;;69.55;59.10;;;;;;;-145.93;100.00;59239.47;4949755;29;20024;-86
2021/12/03 19:08:09;;;;;;;68.50;57.47;;;;;;;-145.93;100.00;59239.47;4954139;29;20106;-87
2021/12/03 19:11:05;;;;;;;68.13;59.50;;;;;;;1.25;100.00;99967.59;4934262;29;20119;-88
2021/12/03 19:13:36;;;;;;;69.30;58.50;;;;;;;1.68;100.00;99938.72;4935478;28;20027;-87
2021/12/03 19:16:11;;;;;;;65.03;57.80;;;;;;;1.71;100.00;99936.16;4962977;28;20028;-88
2021/12/03 19:18:38;;;;;;;64.65;57.63;;;;;;;1.69;100.00;99927.75;4945540;29;20027;-88
2021/12/03 19:21:10;;;;;;;63.42;56.50;;;;;;;1.74;100.00;99920.94;4951375;29;20309;-88
2021/12/03 19:23:35;;;;;;;69.13;58.53;;;;;;;1.78;100.00;99932.72;4967856;28;20051;-87
2021/12/03 19:26:00;;;;;;;63.77;57.03;;;;;;;1.76;100.00;99932.75;4968348;29;20055;-88
2021/12/03 19:28:26;;;;;;;66.17;57.87;;;;;;;1.78;100.00;99938.66;4949757;29;20042;-88
2021/12/03 19:30:54;;;;;;;75.50;58.10;;;;;;;1.84;100.00;99930.16;4960765;28;20261;-89
2021/12/03 19:33:20;;;;;;;67.47;57.35;;;;;;;1.86;100.00;99937.78;4968447;29;20050;-88
2021/12/03 19:36:45;;;;;;;66.00;57.50;;;;;;;-145.93;100.00;59239.47;4970073;28;20058;-88
2021/12/03 19:39:24;;;;;;;64.25;57.25;;;;;;;1.86;100.00;99937.78;4967932;28;20035;-89
2021/12/03 19:42:03;;;;;;;69.40;58.38;;;;;;;1.88;100.00;99925.91;4951110;29;20051;-89
2021/12/03 19:47:11;;;;;;;66.97;59.55;;;;;;;1.87;100.00;99925.09;4993051;28;20037;-87
2021/12/03 19:52:27;;;;;;;74.07;60.03;;;;;;;1.89;100.00;99928.44;4971639;28;20031;-88
2021/12/03 19:54:55;;;;;;;66.57;59.10;;;;;;;1.92;100.00;99932.66;4964910;29;20038;-88
2021/12/03 19:57:22;;;;;;;72.90;60.15;;;;;;;1.90;100.00;99929.31;4959647;28;20035;-87
2021/12/03 19:59:48;;;;;;;72.93;58.35;;;;;;;1.99;100.00;99930.09;4973201;28;20078;-88
2021/12/03 20:02:16;;;;;;;69.80;59.97;;;;;;;2.03;100.00;99930.06;4957413;28;20095;-88
2021/12/03 20:04:45;;;;;;;74.43;63.50;;;;;;;2.04;100.00;99932.59;4974207;28;20028;-88
2021/12/03 20:07:10;;;;;;;71.47;61.42;;;;;;;1.89;100.00;99898.00;4957388;28;20050;-87
2021/12/03 20:10:20;;;;;;;70.57;61.27;;;;;;;2.05;100.00;99920.75;4961929;28;20019;-87
2021/12/03 20:12:25;;;;;;;73.85;60.55;;;;;;;2.11;100.00;99928.31;4976820;28;20036;-87
2021/12/03 20:14:51;;;;;;;68.82;60.70;;;;;;;1.99;100.00;99917.41;4965378;28;20058;-87
2021/12/03 20:17:26;;;;;;;72.07;59.95;;;;;;;2.03;100.00;99894.56;4959938;28;20494;-87
2021/12/03 20:19:57;;;;;;;73.72;61.05;;;;;;;2.01;100.00;99899.63;4967422;28;20024;-88
2021/12/03 20:28:12;;;;;;;73.88;61.60;;;;;;;2.17;100.00;99918.13;4969490;29;20078;-87
2021/12/03 20:31:24;;;;;;;73.00;61.42;;;;;;;2.16;100.00;99898.66;4965032;29;20027;-88
2021/12/03 20:36:26;;;;;;;68.20;60.05;;;;;;;2.30;100.00;99927.31;4966034;29;20086;-87
2021/12/03 20:38:56;;;;;;;68.78;61.08;;;;;;;2.29;100.00;99928.19;4958203;28;20103;-88
2021/12/03 20:41:30;;;;;;;77.65;62.22;;;;;;;2.26;100.00;99920.59;4970441;28;20035;-87
2021/12/03 20:44:08;;;;;;;71.18;61.58;;;;;;;2.31;100.00;99915.50;4981423;28;20039;-88
2021/12/03 20:46:47;;;;;;;68.32;60.30;;;;;;;2.25;100.00;99926.53;4974429;28;20050;-87
2021/12/03 20:59:40;;;;;;;74.93;61.10;;;;;;;2.23;100.00;99897.78;4976131;28;19919;-87
2021/12/03 21:10:24;;;;;;;82.43;64.00;;;;;;;2.32;100.00;99920.56;4980985;28;20042;-87
2021/12/03 21:12:52;;;;;;;80.68;63.67;;;;;;;2.33;100.00;99918.84;4959306;29;20031;-88
2021/12/03 21:18:27;;;;;;;79.85;63.08;;;;;;;2.38;100.00;99941.66;4962422;29;20552;-87
2021/12/03 21:20:58;;;;;;;83.40;62.70;;;;;;;2.39;100.00;99944.19;4970829;28;20038;-86
2021/12/03 21:23:25;;;;;;;78.78;62.33;;;;;;;2.46;100.00;99934.81;4960494;29;20075;-88
2021/12/03 21:25:55;;;;;;;76.70;62.63;;;;;;;2.33;100.00;99923.94;4965867;29;20025;-87
2021/12/03 21:31:02;;;;;;;75.93;62.72;;;;;;;2.31;100.00;99918.03;4967557;28;20027;-87
2021/12/03 21:41:26;;;;;;;91.50;69.25;;;;;;;2.46;100.00;99929.75;4966874;28;20039;-87
2021/12/03 21:43:53;;;;;;;92.80;72.97;;;;;;;2.40;100.00;99922.19;4956870;29;20090;-88
2021/12/03 21:46:24;;;;;;;100.20;74.97;;;;;;;2.46;100.00;99945.81;4972495;29;20027;-87
2021/12/03 21:48:50;;;;;;;130.43;92.55;;;;;;;2.34;100.00;99934.06;4939262;29;20051;-87
2021/12/03 21:51:17;;;;;;;106.55;76.57;;;;;;;2.33;100.00;99922.22;4955744;28;20038;-88
2021/12/03 21:53:42;;;;;;;86.82;67.28;;;;;;;2.45;100.00;99943.28;4984031;28;20037;-88
2021/12/03 21:56:08;;;;;;;82.83;63.23;;;;;;;2.45;100.00;99928.06;4967431;29;20035;-87
2021/12/03 21:58:33;;;;;;;75.63;62.77;;;;;;;2.42;100.00;99948.38;4973281;28;20020;-88
2021/12/03 22:00:58;;;;;;;70.67;59.70;;;;;;;2.48;100.00;99945.78;4975512;28;20035;-88
2021/12/03 22:03:24;;;;;;;80.70;66.77;;;;;;;2.37;100.00;99940.81;4959351;28;20042;-89
2021/12/03 22:05:51;;;;;;;79.90;62.40;;;;;;;2.41;100.00;99942.47;4960704;28;20039;-88
2021/12/03 22:08:19;;;;;;;82.20;66.03;;;;;;;2.44;100.00;99949.22;4972998;29;20116;-89
2021/12/03 22:10:44;;;;;;;74.30;63.50;;;;;;;2.42;100.00;99956.00;4976842;28;20062;-87
2021/12/03 22:13:10;;;;;;;77.70;63.47;;;;;;;2.38;100.00;99954.34;4975208;28;20031;-86
2021/12/03 22:15:35;;;;;;;74.27;61.00;;;;;;;2.49;100.00;99960.19;4960832;29;20028;-86
2021/12/03 22:18:01;;;;;;;82.45;64.40;;;;;;;2.45;100.00;99964.44;4957532;29;20052;-87
2021/12/03 22:20:26;;;;;;;78.20;63.20;;;;;;;2.51;100.00;99961.00;4970283;28;20024;-88
2021/12/03 22:22:52;;;;;;;73.03;61.50;;;;;;;2.54;100.00;99966.06;4941560;29;20491;-87
2021/12/03 22:25:18;;;;;;;72.47;61.35;;;;;;;2.44;100.00;99942.44;4967989;29;20051;-87
2021/12/03 22:27:43;;;;;;;74.67;61.63;;;;;;;2.48;100.00;99971.19;4971214;29;20399;-88
2021/12/03 22:30:09;;;;;;;75.03;60.80;;;;;;;2.53;100.00;99964.41;4959083;29;20027;-87
2021/12/03 22:32:34;;;;;;;73.07;61.07;;;;;;;2.46;100.00;99955.13;4956021;28;20487;-88
2021/12/03 22:35:00;;;;;;;72.87;60.50;;;;;;;2.46;100.00;99960.22;4970405;28;20031;-88
2021/12/03 22:37:25;;;;;;;75.07;60.43;;;;;;;2.54;100.00;99958.44;4974437;29;20094;-87
2021/12/03 22:39:51;;;;;;;73.40;60.00;;;;;;;2.53;100.00;99966.94;4977945;28;20015;-87
2021/12/03 22:42:17;;;;;;;81.47;61.83;;;;;;;2.46;100.00;99939.91;4977754;28;20016;-89
2021/12/03 22:44:43;;;;;;;72.97;59.00;;;;;;;2.56;100.00;99956.72;4960516;28;20091;-87
2021/12/03 22:47:32;;;;;;;74.78;60.47;;;;;;;2.58;100.00;99954.19;4947533;28;20031;-87
2021/12/03 22:52:39;;;;;;;73.03;60.70;;;;;;;2.48;100.00;99928.03;4965028;28;20024;-86
2021/12/03 22:55:06;;;;;;;73.75;60.22;;;;;;;2.55;100.00;99939.81;4959072;28;20038;-87
2021/12/03 22:57:38;;;;;;;77.88;62.33;;;;;;;2.60;100.00;99948.25;4950108;29;20047;-87
2021/12/03 23:00:07;;;;;;;77.63;62.70;;;;;;;2.55;100.00;99939.81;4952921;29;20023;-89
2021/12/03 23:02:32;;;;;;;79.22;61.28;;;;;;;2.51;100.00;99918.72;4949759;29;20031;-88
2021/12/03 23:04:57;;;;;;;72.57;61.30;;;;;;;2.62;100.00;99941.44;4971439;28;20151;-89
2021/12/03 23:07:23;;;;;;;77.40;62.63;;;;;;;2.60;100.00;99943.16;4952368;29;20097;-86
2021/12/03 23:09:48;;;;;;;79.30;62.90;;;;;;;2.53;100.00;99937.31;4947866;28;20031;-88
2021/12/03 23:12:14;;;;;;;79.87;63.87;;;;;;;2.58;100.00;99928.78;4949263;29;20497;-88
2021/12/03 23:14:39;;;;;;;73.67;60.87;;;;;;;2.63;100.00;99938.06;4952489;28;20034;-88
2021/12/03 23:17:05;;;;;;;70.20;57.97;;;;;;;2.53;100.00;99916.16;4946016;29;20048;-88
2021/12/03 23:19:31;;;;;;;74.07;60.38;;;;;;;2.60;100.00;99932.19;4927588;29;20023;-86
2021/12/03 23:21:57;;;;;;;81.40;64.97;;;;;;;2.63;100.00;99932.97;4945901;28;20032;-88
2021/12/03 23:24:22;;;;;;;;;;;;;;;2.70;100.00;99942.25;4947378;29;20058;-87
2021/12/03 23:26:48;;;;;;;73.57;60.28;;;;;;;2.67;100.00;99939.72;4946770;29;19978;-87
2021/12/03 23:29:15;;;;;;;67.55;59.25;;;;;;;2.64;100.00;99939.75;4961329;28;20034;-87
2021/12/03 23:31:43;;;;;;;;;;;;;;;2.68;100.00;99949.00;4963449;28;20031;-88
2021/12/03 23:34:12;;;;;;;75.35;60.40;;;;;;;2.70;100.00;99944.78;4947222;29;19925;-89
2021/12/03 23:36:43;;;;;;;78.40;62.90;;;;;;;2.56;100.00;99930.50;4947905;29;20538;-87
2021/12/03 23:39:08;;;;;;;77.38;62.25;;;;;;;2.53;100.00;99919.53;4950155;29;20023;-87
2021/12/03 23:41:34;;;;;;;72.07;60.60;;;;;;;2.65;100.00;99941.41;4947009;29;20027;-89
2021/12/03 23:44:00;;;;;;;77.40;61.05;;;;;;;2.66;100.00;99940.56;4945756;29;20019;-88
2021/12/03 23:46:26;;;;;;;71.90;57.63;;;;;;;2.61;100.00;99934.69;4940863;29;20371;-87
2021/12/03 23:48:54;;;;;;;72.32;59.53;;;;;;;2.67;100.00;99939.72;4948516;29;20019;-87
2021/12/03 23:51:20;;;;;;;75.57;61.28;;;;;;;2.64;100.00;99934.69;4958904;28;20031;-86
2021/12/03 23:53:46;;;;;;;78.40;60.70;;;;;;;2.65;100.00;99923.66;4950130;29;20027;-85
2021/12/03 23:56:11;;;;;;;77.87;61.87;;;;;;;2.69;100.00;99922.78;4942774;29;20115;-87
2021/12/03 23:58:39;;;;;;;82.73;61.90;;;;;;;2.63;100.00;99909.28;4955065;28;20506;-88
